Time;durP1;ratioP1;P1;durP2;ratioP2;P2;SDS_P1;SDS_P2;PMS_P1;PMS_P2;Temp;Humidity;BMP_temperature;BMP_pressure;BME280_temperature;BME280_humidity;BME280_pressure;Samples;Min_cycle;Max_cycle;Signal;HPM_P1;HPM_P2
2023/08/06 00:02:13;;;;;;;8.40;5.65;;;13.70;99.90;;;;;;5074706;28;20039;-65
2023/08/06 00:04:39;;;;;;;9.02;5.88;;;14.50;99.90;;;;;;5074677;28;20381;-65
2023/08/06 00:07:04;;;;;;;11.65;6.35;;;14.00;99.90;;;;;;5073283;28;20044;-65
2023/08/06 00:09:30;;;;;;;8.60;6.05;;;14.10;99.90;;;;;;5074510;28;20082;-65
2023/08/06 00:11:56;;;;;;;8.88;6.65;;;14.10;99.90;;;;;;5074802;28;20039;-66
2023/08/06 00:14:21;;;;;;;8.95;6.65;;;14.10;99.90;;;;;;5074704;28;20064;-65
2023/08/06 00:16:47;;;;;;;8.73;6.60;;;14.10;99.90;;;;;;5074715;28;20037;-65
2023/08/06 00:19:13;;;;;;;12.15;6.53;;;14.20;99.90;;;;;;5074660;28;20041;-65
2023/08/06 00:21:38;;;;;;;8.02;5.85;;;14.10;99.90;;;;;;5074414;28;20399;-65
2023/08/06 00:24:04;;;;;;;8.55;5.57;;;13.70;99.90;;;;;;5074507;28;20045;-65
2023/08/06 00:26:30;;;;;;;8.60;6.50;;;14.10;99.90;;;;;;5072975;28;20052;-65
2023/08/06 00:28:55;;;;;;;8.45;6.13;;;14.10;99.90;;;;;;5074401;28;20059;-65
2023/08/06 00:31:21;;;;;;;9.43;6.25;;;14.10;99.90;;;;;;5074269;28;20079;-66
2023/08/06 00:33:46;;;;;;;8.93;6.50;;;14.20;99.90;;;;;;5072876;28;20043;-65
2023/08/06 00:36:12;;;;;;;9.32;6.10;;;14.10;99.90;;;;;;5074321;28;20036;-66
2023/08/06 00:38:37;;;;;;;11.88;6.40;;;14.10;99.90;;;;;;5073007;28;20086;-65
2023/08/06 00:41:03;;;;;;;10.32;6.28;;;14.10;99.90;;;;;;5074198;28;20046;-65
2023/08/06 00:43:29;;;;;;;11.73;7.40;;;14.10;99.90;;;;;;5072913;28;20044;-65
2023/08/06 00:45:55;;;;;;;6.63;5.47;;;13.90;99.90;;;;;;5074101;28;20040;-65
2023/08/06 00:48:21;;;;;;;7.30;5.78;;;14.80;99.90;;;;;;5073970;28;20403;-65
2023/08/06 00:50:47;;;;;;;11.15;6.35;;;14.10;99.90;;;;;;5074003;28;20032;-65
2023/08/06 00:53:13;;;;;;;9.57;6.32;;;14.10;99.90;;;;;;5074028;28;20029;-65
2023/08/06 00:55:39;;;;;;;8.20;5.82;;;14.10;99.90;;;;;;5073918;28;20038;-65
2023/08/06 00:58:05;;;;;;;8.00;6.18;;;14.10;99.90;;;;;;5073616;28;20064;-66
2023/08/06 01:00:31;;;;;;;8.90;6.30;;;14.40;99.90;;;;;;5072655;28;20085;-65
2023/08/06 01:02:56;;;;;;;10.82;6.13;;;14.10;99.90;;;;;;5073744;28;20032;-65
2023/08/06 01:05:23;;;;;;;8.50;6.72;;;14.10;99.90;;;;;;5073720;28;20460;-65
2023/08/06 01:08:00;;;;;;;7.85;6.25;;;14.10;99.90;;;;;;5073171;28;20040;-65
2023/08/06 01:10:47;;;;;;;8.20;6.60;;;14.00;99.90;;;;;;5072123;28;20554;-65
2023/08/06 01:13:24;;;;;;;7.78;6.30;;;14.20;99.90;;;;;;5073649;28;20098;-65
2023/08/06 01:15:55;;;;;;;8.93;6.70;;;14.20;99.90;;;;;;5073611;28;20503;-65
2023/08/06 01:18:21;;;;;;;8.30;6.25;;;14.10;99.90;;;;;;5073229;28;20045;-65
2023/08/06 01:20:47;;;;;;;8.75;6.45;;;14.10;99.90;;;;;;5073496;28;20048;-65
2023/08/06 01:23:12;;;;;;;8.82;6.90;;;14.10;99.90;;;;;;5073473;28;20041;-65
2023/08/06 01:26:16;;;;;;;7.50;5.97;;;13.90;99.90;;;;;;5071976;28;20036;-66
2023/08/06 01:29:10;;;;;;;9.27;6.47;;;14.10;99.90;;;;;;5071861;28;20051;-65
2023/08/06 01:31:38;;;;;;;9.40;6.50;;;14.10;99.90;;;;;;5073426;28;20112;-65
2023/08/06 01:34:08;;;;;;;10.45;6.53;;;14.10;99.90;;;;;;5073357;28;20086;-65
2023/08/06 01:36:34;;;;;;;8.93;6.43;;;14.10;99.90;;;;;;5073340;28;20029;-65
2023/08/06 01:39:00;;;;;;;8.80;6.20;;;14.60;99.90;;;;;;5073327;28;20042;-65
2023/08/06 01:41:26;;;;;;;8.20;6.00;;;14.10;99.90;;;;;;5073311;28;20115;-63
2023/08/06 01:43:51;;;;;;;9.73;6.90;;;14.10;99.90;;;;;;5072902;28;20033;-62
2023/08/06 01:46:17;;;;;;;8.48;6.45;;;14.10;99.90;;;;;;5073190;28;20119;-63
2023/08/06 01:48:43;;;;;;;8.60;6.93;;;14.80;99.90;;;;;;5073080;28;20044;-63
2023/08/06 01:51:08;;;;;;;8.98;6.35;;;14.10;99.90;;;;;;5073200;28;20040;-62
2023/08/06 01:53:34;;;;;;;8.93;5.93;;;14.60;99.90;;;;;;5073113;28;20036;-63
2023/08/06 01:56:00;;;;;;;11.13;7.20;;;14.10;99.90;;;;;;5073055;28;20488;-63
2023/08/06 01:58:26;;;;;;;8.45;6.07;;;14.10;99.90;;;;;;5072647;28;20131;-62
2023/08/06 02:00:51;;;;;;;8.15;6.18;;;14.10;99.90;;;;;;5072725;28;20044;-63
2023/08/06 02:03:17;;;;;;;8.93;6.80;;;14.30;99.90;;;;;;5073004;28;20070;-62
2023/08/06 02:05:42;;;;;;;8.73;6.30;;;14.20;99.90;;;;;;5072986;28;20036;-63
2023/08/06 02:08:08;;;;;;;10.95;6.60;;;14.20;99.90;;;;;;5072971;28;20368;-63
2023/08/06 02:10:34;;;;;;;7.97;5.65;;;14.10;99.90;;;;;;5072900;28;20475;-63
2023/08/06 02:12:59;;;;;;;7.95;6.00;;;14.20;99.90;;;;;;5072942;28;20032;-62
2023/08/06 02:15:25;;;;;;;10.70;6.90;;;14.10;99.90;;;;;;5072914;28;20037;-63
2023/08/06 02:17:51;;;;;;;9.15;6.45;;;14.50;99.90;;;;;;5072871;28;20040;-63
2023/08/06 02:20:16;;;;;;;8.85;5.78;;;14.10;99.90;;;;;;5075929;28;20091;-62
2023/08/06 02:22:42;;;;;;;9.85;5.88;;;14.10;99.90;;;;;;5076817;28;20068;-63
2023/08/06 02:25:08;;;;;;;10.52;6.57;;;14.10;99.90;;;;;;5076593;28;20045;-62
2023/08/06 02:27:33;;;;;;;11.48;6.63;;;14.10;99.90;;;;;;5076766;28;20052;-62
2023/08/06 02:29:59;;;;;;;12.02;6.10;;;14.10;99.90;;;;;;5075271;28;20051;-62
2023/08/06 02:32:25;;;;;;;8.18;6.43;;;14.10;99.90;;;;;;5076629;28;20033;-62
2023/08/06 02:34:50;;;;;;;9.30;5.88;;;14.40;99.90;;;;;;5076675;28;20408;-63
2023/08/06 02:37:16;;;;;;;9.98;6.10;;;14.10;99.90;;;;;;5076629;28;20043;-63
2023/08/06 02:39:42;;;;;;;8.45;6.50;;;14.10;99.90;;;;;;5075248;28;20475;-62
2023/08/06 02:42:08;;;;;;;8.40;6.40;;;14.20;99.90;;;;;;5076321;28;20044;-64
2023/08/06 02:44:34;;;;;;;8.05;5.85;;;14.20;99.90;;;;;;5076430;28;20101;-65
2023/08/06 02:47:00;;;;;;;10.23;6.72;;;14.20;99.90;;;;;;5076377;28;20047;-66
2023/08/06 02:49:26;;;;;;;8.95;6.18;;;14.80;99.90;;;;;;5074857;28;20119;-65
2023/08/06 02:51:52;;;;;;;9.48;5.43;;;14.20;99.90;;;;;;5076327;28;20111;-66
2023/08/06 02:54:18;;;;;;;7.60;5.63;;;14.20;99.90;;;;;;5076064;28;20072;-65
2023/08/06 02:56:44;;;;;;;6.97;5.65;;;14.00;99.90;;;;;;5074565;28;20040;-65
2023/08/06 02:59:11;;;;;;;8.50;5.90;;;14.20;99.90;;;;;;5074665;28;20044;-65
2023/08/06 03:01:36;;;;;;;7.82;5.85;;;14.50;99.90;;;;;;5075848;28;20044;-65
2023/08/06 03:04:02;;;;;;;9.20;6.25;;;14.10;99.90;;;;;;5074944;28;20448;-66
2023/08/06 03:06:28;;;;;;;9.98;5.93;;;14.20;99.90;;;;;;5076038;28;20041;-65
2023/08/06 03:08:54;;;;;;;10.98;6.82;;;14.10;99.90;;;;;;5075919;28;20044;-65
2023/08/06 03:11:19;;;;;;;7.90;6.28;;;14.20;99.90;;;;;;5075999;28;20491;-65
2023/08/06 03:13:45;;;;;;;8.98;6.28;;;14.30;99.90;;;;;;5075938;28;20040;-65
2023/08/06 03:16:11;;;;;;;8.27;5.78;;;13.90;99.90;;;;;;5075884;28;20476;-65
2023/08/06 03:18:36;;;;;;;8.15;6.10;;;14.10;99.90;;;;;;5075745;28;20478;-65
2023/08/06 03:21:02;;;;;;;9.05;6.05;;;14.10;99.90;;;;;;5091117;28;20033;-65
2023/08/06 03:23:27;;;;;;;9.88;5.97;;;14.10;99.90;;;;;;5074458;28;20476;-65
2023/08/06 03:25:53;;;;;;;9.20;6.15;;;14.10;99.90;;;;;;5075739;28;20127;-65
2023/08/06 03:28:18;;;;;;;10.77;6.95;;;14.00;99.90;;;;;;5075546;28;20040;-65
2023/08/06 03:30:44;;;;;;;7.18;5.40;;;14.00;99.90;;;;;;5075477;28;20493;-66
2023/08/06 03:33:10;;;;;;;8.05;6.40;;;14.00;99.90;;;;;;5075603;28;20079;-65
2023/08/06 03:35:35;;;;;;;9.75;5.72;;;13.90;99.90;;;;;;5075501;28;20115;-65
2023/08/06 03:38:01;;;;;;;9.10;6.38;;;13.90;99.90;;;;;;5073940;28;20555;-65
2023/08/06 03:40:26;;;;;;;8.73;6.15;;;13.90;99.90;;;;;;5075425;28;20072;-65
2023/08/06 03:42:52;;;;;;;11.60;6.50;;;13.80;99.90;;;;;;5075380;28;20115;-65
2023/08/06 03:45:18;;;;;;;8.07;6.82;;;13.80;99.90;;;;;;5075146;28;20490;-65
2023/08/06 03:47:43;;;;;;;8.23;5.93;;;13.70;99.90;;;;;;5073636;28;20047;-65
2023/08/06 03:50:09;;;;;;;7.22;6.25;;;14.30;99.90;;;;;;5074975;28;20047;-65
2023/08/06 03:52:35;;;;;;;8.98;6.68;;;13.60;99.90;;;;;;5075315;28;20036;-65
2023/08/06 03:55:00;;;;;;;10.65;6.78;;;13.60;99.90;;;;;;5075187;28;20089;-62
2023/08/06 03:57:26;;;;;;;11.48;7.68;;;13.60;99.90;;;;;;5074828;28;20088;-62
2023/08/06 03:59:52;;;;;;;10.45;6.90;;;13.80;99.90;;;;;;5075059;28;20094;-63
2023/08/06 04:02:17;;;;;;;9.90;7.43;;;13.20;99.90;;;;;;5075062;28;20040;-62
2023/08/06 04:04:43;;;;;;;10.80;7.40;;;13.50;99.90;;;;;;5056839;28;20484;-65
2023/08/06 04:07:08;;;;;;;10.55;7.35;;;13.50;99.90;;;;;;5074840;28;20040;-66
2023/08/06 04:09:50;;;;;;;8.98;7.03;;;14.10;99.90;;;;;;5074904;28;20436;-66
2023/08/06 04:12:16;;;;;;;12.25;7.03;;;13.40;99.90;;;;;;5074919;28;20072;-66
2023/08/06 04:14:41;;;;;;;8.45;6.50;;;13.30;99.90;;;;;;5074928;28;20453;-65
2023/08/06 04:17:07;;;;;;;8.82;6.90;;;13.70;99.90;;;;;;5074745;28;20064;-65
2023/08/06 04:19:32;;;;;;;9.20;6.82;;;13.30;99.90;;;;;;5074389;28;20479;-65
2023/08/06 04:21:58;;;;;;;10.80;7.43;;;13.30;99.90;;;;;;5073179;28;20098;-65
2023/08/06 04:24:23;;;;;;;11.88;7.85;;;13.90;99.90;;;;;;5074550;28;20036;-65
2023/08/06 04:26:49;;;;;;;11.10;7.75;;;13.30;99.90;;;;;;5074531;28;20064;-65
2023/08/06 04:29:14;;;;;;;13.35;7.80;;;13.60;99.90;;;;;;5072897;28;20480;-65
2023/08/06 04:31:40;;;;;;;12.15;8.63;;;14.10;99.90;;;;;;5074445;28;20078;-65
2023/08/06 04:34:07;;;;;;;21.10;8.25;;;13.40;99.90;;;;;;5074365;28;20040;-65
2023/08/06 04:36:33;;;;;;;10.10;7.35;;;13.80;99.90;;;;;;5073049;28;20472;-65
2023/08/06 04:38:59;;;;;;;11.68;7.65;;;14.00;99.90;;;;;;5073065;28;20086;-65
2023/08/06 04:41:24;;;;;;;10.27;7.50;;;13.70;99.90;;;;;;5073440;28;20094;-65
2023/08/06 04:43:50;;;;;;;10.35;7.80;;;13.40;99.90;;;;;;5074109;28;20040;-65
2023/08/06 04:46:15;;;;;;;11.57;7.70;;;13.50;99.90;;;;;;5072647;28;20560;-65
2023/08/06 04:48:41;;;;;;;8.98;6.97;;;13.40;99.90;;;;;;5074018;28;20037;-62
2023/08/06 04:51:06;;;;;;;12.57;7.70;;;13.50;99.90;;;;;;5074024;28;20040;-63
2023/08/06 04:53:32;;;;;;;11.60;8.43;;;13.30;99.90;;;;;;5074106;28;20135;-62
2023/08/06 04:55:57;;;;;;;10.85;7.68;;;13.40;99.90;;;;;;5073720;28;20033;-62
2023/08/06 04:58:23;;;;;;;10.13;7.63;;;13.50;99.90;;;;;;5073452;28;20094;-62
2023/08/06 05:00:49;;;;;;;12.52;7.28;;;13.70;99.90;;;;;;5073954;28;20400;-63
2023/08/06 05:03:14;;;;;;;14.85;7.20;;;13.20;99.90;;;;;;5073871;28;20164;-62
2023/08/06 05:05:41;;;;;;;10.82;7.18;;;13.60;99.90;;;;;;5072268;28;20448;-62
2023/08/06 05:08:07;;;;;;;9.00;6.78;;;13.20;99.90;;;;;;5073719;28;20434;-62
2023/08/06 05:10:32;;;;;;;10.88;8.35;;;13.80;99.90;;;;;;5073337;28;20038;-62
2023/08/06 05:12:58;;;;;;;12.63;8.52;;;13.60;99.90;;;;;;5073601;28;20041;-62
2023/08/06 05:15:25;;;;;;;12.48;7.85;;;13.40;99.90;;;;;;5073574;28;20040;-62
2023/08/06 05:17:51;;;;;;;11.43;7.43;;;14.30;99.90;;;;;;5072032;28;20447;-62
2023/08/06 05:20:17;;;;;;;10.30;7.97;;;14.10;99.90;;;;;;5073581;28;20045;-62
2023/08/06 05:22:43;;;;;;;10.02;7.63;;;13.50;99.90;;;;;;5073507;28;20033;-62
2023/08/06 05:25:09;;;;;;;10.60;7.85;;;13.60;99.90;;;;;;5073635;28;20044;-62
2023/08/06 05:27:34;;;;;;;9.65;7.45;;;13.80;99.90;;;;;;5073385;28;20044;-62
2023/08/06 05:30:00;;;;;;;10.75;8.13;;;13.80;99.90;;;;;;5073354;28;20078;-62
2023/08/06 05:32:25;;;;;;;12.73;7.90;;;14.00;99.90;;;;;;5073129;28;20121;-63
2023/08/06 05:34:51;;;;;;;11.10;7.95;;;14.00;99.90;;;;;;5073376;28;20033;-62
2023/08/06 05:37:17;;;;;;;11.32;8.10;;;14.10;99.90;;;;;;5071824;28;20077;-62
2023/08/06 05:39:42;;;;;;;9.57;7.80;;;14.20;99.90;;;;;;5072980;28;20039;-62
2023/08/06 05:42:08;;;;;;;11.55;8.55;;;14.00;99.90;;;;;;5073003;28;20526;-62
2023/08/06 05:44:33;;;;;;;11.75;8.15;;;14.30;99.90;;;;;;5073191;28;20128;-60
2023/08/06 05:46:59;;;;;;;11.63;7.82;;;13.90;99.90;;;;;;5072819;28;20032;-60
2023/08/06 05:49:25;;;;;;;10.73;7.75;;;13.80;99.90;;;;;;5072802;28;20044;-60
2023/08/06 05:51:53;;;;;;;10.35;7.68;;;13.90;99.90;;;;;;5072837;28;20124;-60
2023/08/06 05:54:18;;;;;;;12.75;8.15;;;14.20;99.90;;;;;;5071460;28;20041;-60
2023/08/06 05:56:44;;;;;;;12.43;8.05;;;14.50;99.90;;;;;;5071583;28;20537;-60
2023/08/06 05:59:10;;;;;;;11.85;8.23;;;14.40;99.90;;;;;;5073143;28;20048;-60
2023/08/06 06:01:36;;;;;;;11.52;8.15;;;14.50;99.90;;;;;;5073065;28;20124;-60
2023/08/06 06:04:01;;;;;;;8.98;7.10;;;14.70;99.90;;;;;;5071584;28;20052;-60
2023/08/06 06:06:27;;;;;;;9.35;6.72;;;14.80;99.90;;;;;;5071679;28;20045;-63
2023/08/06 06:08:53;;;;;;;10.38;7.28;;;14.80;99.90;;;;;;5072605;28;20094;-63
2023/08/06 06:11:21;;;;;;;11.93;7.97;;;14.90;99.90;;;;;;5071785;28;20105;-63
2023/08/06 06:13:49;;;;;;;8.38;6.47;;;15.00;99.90;;;;;;5071454;28;20119;-63
2023/08/06 06:16:15;;;;;;;10.88;6.80;;;15.10;99.90;;;;;;5072931;28;20475;-63
2023/08/06 06:18:40;;;;;;;8.90;6.63;;;15.20;99.90;;;;;;5072841;28;20044;-63
2023/08/06 06:21:06;;;;;;;9.80;5.68;;;15.20;99.90;;;;;;5072906;28;20480;-63
2023/08/06 06:23:31;;;;;;;7.90;6.03;;;15.80;99.90;;;;;;5072810;28;20472;-63
2023/08/06 06:25:57;;;;;;;10.32;6.90;;;15.50;99.90;;;;;;5071687;28;20043;-63
2023/08/06 06:28:22;;;;;;;8.90;6.72;;;15.40;99.90;;;;;;5072738;28;20094;-63
2023/08/06 06:30:48;;;;;;;7.28;5.55;;;15.40;99.90;;;;;;5072814;28;20531;-63
2023/08/06 06:33:14;;;;;;;8.18;5.78;;;15.40;99.90;;;;;;5072768;28;20117;-63
2023/08/06 06:35:39;;;;;;;7.55;6.18;;;15.40;99.90;;;;;;5072526;28;20060;-62
2023/08/06 06:38:05;;;;;;;8.18;5.65;;;15.30;99.90;;;;;;5072453;28;20098;-63
2023/08/06 06:40:31;;;;;;;8.23;6.18;;;15.30;99.90;;;;;;5072646;28;20384;-63
2023/08/06 06:42:56;;;;;;;10.35;6.53;;;15.40;99.90;;;;;;5072683;28;20041;-63
2023/08/06 06:45:22;;;;;;;9.80;6.43;;;15.30;99.90;;;;;;5071355;28;20545;-63
2023/08/06 06:47:47;;;;;;;8.02;6.53;;;15.40;99.90;;;;;;5072514;28;20059;-63
2023/08/06 06:50:13;;;;;;;9.57;6.68;;;15.40;99.90;;;;;;5072607;28;20472;-63
2023/08/06 06:52:38;;;;;;;8.13;6.18;;;15.50;99.90;;;;;;5072578;28;20046;-63
2023/08/06 06:55:05;;;;;;;11.00;6.47;;;15.30;99.90;;;;;;5072564;28;20510;-63
2023/08/06 06:57:30;;;;;;;7.43;6.13;;;15.40;99.90;;;;;;5072235;28;20611;-63
2023/08/06 06:59:56;;;;;;;8.05;5.95;;;15.40;99.90;;;;;;5072527;28;20090;-63
2023/08/06 07:02:21;;;;;;;8.93;6.22;;;15.50;99.90;;;;;;5072482;28;20494;-63
2023/08/06 07:04:47;;;;;;;9.18;6.18;;;15.40;99.90;;;;;;5072939;28;20048;-63
2023/08/06 07:07:12;;;;;;;9.05;6.72;;;15.50;99.90;;;;;;5076006;28;20040;-63
2023/08/06 07:09:38;;;;;;;8.02;6.47;;;15.50;99.90;;;;;;5076023;28;20111;-63
2023/08/06 07:12:04;;;;;;;9.40;6.97;;;15.60;99.90;;;;;;5075981;28;20044;-63
2023/08/06 07:14:30;;;;;;;8.10;6.57;;;15.70;99.90;;;;;;5075920;28;20043;-63
2023/08/06 07:16:55;;;;;;;6.82;5.63;;;15.70;99.90;;;;;;5075677;28;20032;-60
2023/08/06 07:19:21;;;;;;;7.57;6.45;;;15.70;99.90;;;;;;5075777;28;20040;-60
2023/08/06 07:21:46;;;;;;;7.88;6.50;;;15.80;99.90;;;;;;5075720;28;20174;-60
2023/08/06 07:24:12;;;;;;;7.28;5.97;;;15.90;99.90;;;;;;5075728;28;20507;-60
2023/08/06 07:26:38;;;;;;;7.60;5.70;;;16.00;99.90;;;;;;5075675;28;20040;-60
2023/08/06 07:29:03;;;;;;;6.95;5.55;;;16.00;99.90;;;;;;5074035;28;20407;-60
2023/08/06 07:31:29;;;;;;;8.88;6.63;;;15.90;99.90;;;;;;5075597;28;20036;-60
2023/08/06 07:33:55;;;;;;;8.02;6.18;;;16.00;99.90;;;;;;5075304;28;20036;-63
2023/08/06 07:36:21;;;;;;;8.95;5.95;;;16.00;99.90;;;;;;5075199;28;20041;-63
2023/08/06 07:38:48;;;;;;;6.75;5.32;;;16.40;99.90;;;;;;5075457;28;20542;-63
2023/08/06 07:41:14;;;;;;;7.70;5.43;;;16.00;99.90;;;;;;5075500;28;20045;-62
2023/08/06 07:43:39;;;;;;;8.50;5.97;;;16.20;99.90;;;;;;5075194;28;20455;-62
2023/08/06 07:46:05;;;;;;;7.13;5.47;;;16.20;99.90;;;;;;5057586;28;20071;-65
2023/08/06 07:48:31;;;;;;;7.40;5.57;;;16.30;99.90;;;;;;5075249;28;20044;-65
2023/08/06 07:50:57;;;;;;;6.88;5.45;;;16.70;99.90;;;;;;5075224;28;20040;-65
2023/08/06 07:53:26;;;;;;;6.97;5.57;;;16.70;99.90;;;;;;5073699;28;20112;-65
2023/08/06 07:55:53;;;;;;;5.80;4.32;;;16.30;99.90;;;;;;5075203;28;20090;-65
2023/08/06 07:58:20;;;;;;;6.38;4.95;;;16.50;99.90;;;;;;5074813;28;20428;-66
2023/08/06 08:00:46;;;;;;;8.10;5.75;;;16.50;99.90;;;;;;5075104;28;20403;-65
2023/08/06 08:03:16;;;;;;;6.90;5.45;;;16.50;99.90;;;;;;5075086;28;20040;-65
2023/08/06 08:05:42;;;;;;;7.70;5.40;;;16.60;99.90;;;;;;5074907;28;20083;-66
2023/08/06 08:08:08;;;;;;;7.53;5.28;;;16.70;99.90;;;;;;5074671;28;20037;-65
2023/08/06 08:10:34;;;;;;;7.10;5.38;;;16.80;99.90;;;;;;5074874;28;20506;-65
2023/08/06 08:13:01;;;;;;;8.38;5.35;;;16.90;99.90;;;;;;5074875;28;20387;-65
2023/08/06 08:15:29;;;;;;;6.60;5.00;;;16.90;99.90;;;;;;5074730;28;20031;-66
2023/08/06 08:17:55;;;;;;;6.35;5.30;;;17.40;99.90;;;;;;5074748;28;20040;-65
2023/08/06 08:20:21;;;;;;;8.07;5.13;;;;;;;;;;5074389;28;20044;-65
2023/08/06 08:22:47;;;;;;;6.07;4.55;;;;;;;;;;5074568;28;20040;-66
2023/08/06 08:25:14;;;;;;;6.95;5.20;;;;;;;;;;5074095;28;20044;-63
2023/08/06 08:27:40;;;;;;;8.45;5.30;;;;;;;;;;5074403;28;20036;-63
2023/08/06 08:30:06;;;;;;;7.03;4.93;;;;;;;;;;5074015;28;20048;-63
2023/08/06 08:32:32;;;;;;;6.63;4.80;;;;;;;;;;5073977;28;20032;-63
2023/08/06 08:34:58;;;;;;;7.43;4.70;;;;;;;;;;5074209;28;20040;-63
2023/08/06 08:37:24;;;;;;;5.57;4.53;;;;;;;;;;5073801;28;20040;-63
2023/08/06 08:39:50;;;;;;;5.82;5.22;;;;;;;;;;5074141;28;20043;-63
2023/08/06 08:42:16;;;;;;;5.30;4.65;;;;;;;;;;5074078;28;20040;-63
2023/08/06 08:44:43;;;;;;;7.07;4.63;;;;;;;;;;5073968;28;20411;-63
2023/08/06 08:47:10;;;;;;;6.32;4.80;;;;;;;;;;5073644;28;20040;-63
2023/08/06 08:49:36;;;;;;;5.68;4.25;;;;;;;;;;5073954;28;20086;-63
2023/08/06 08:52:06;;;;;;;5.90;4.20;;;;;;;;;;5073826;28;20392;-64
2023/08/06 08:54:33;;;;;;;6.40;4.68;;;;;;;;;;5072686;28;20476;-63
2023/08/06 08:56:59;;;;;;;6.55;4.28;;;;;;;;;;5073842;28;20064;-62
2023/08/06 08:59:25;;;;;;;6.05;4.78;;;;;;;;;;5073824;28;20511;-63
2023/08/06 09:01:51;;;;;;;7.50;5.20;;;;;;;;;;5073573;28;20518;-66
2023/08/06 09:04:18;;;;;;;5.38;4.47;;;;;;;;;;5073796;28;20434;-66
2023/08/06 09:06:47;;;;;;;6.47;4.20;;;;;;;;;;5073770;28;20488;-66
2023/08/06 09:09:14;;;;;;;6.65;4.28;;;;;;;;;;5073656;28;20048;-66
2023/08/06 09:11:43;;;;;;;8.27;4.68;;;;;;;;;;5073733;28;20437;-66
2023/08/06 09:14:09;;;;;;;5.95;4.15;;;;;;;;;;5073647;28;20028;-66
2023/08/06 09:16:35;;;;;;;6.13;3.88;;;;;;;;;;5073622;28;20082;-66
2023/08/06 09:19:17;;;;;;;9.82;4.07;;;;;;;;;;5073566;28;20063;-64
2023/08/06 09:21:44;;;;;;;4.63;3.78;;;;;;;;;;5073546;28;20105;-63
2023/08/06 09:24:13;;;;;;;7.75;3.95;;;;;;;;;;5073191;28;20040;-64
2023/08/06 09:26:43;;;;;;;5.50;3.67;;;;;;;;;;5073481;28;20119;-63
2023/08/06 09:29:14;;;;;;;4.43;3.75;;;;;;;;;;5073052;28;20127;-63
2023/08/06 09:31:44;;;;;;;6.05;3.72;;;;;;;;;;5073136;28;20388;-63
2023/08/06 09:34:16;;;;;;;6.37;3.73;;;;;;;;;;5071899;28;20063;-63
2023/08/06 09:36:43;;;;;;;6.07;3.92;;;;;;;;;;5073409;28;20510;-61
2023/08/06 09:39:15;;;;;;;5.55;3.60;;;;;;;;;;5072992;28;20087;-63
2023/08/06 09:41:45;;;;;;;5.88;3.55;;;;;;;;;;5073237;28;20044;-63
2023/08/06 09:44:18;;;;;;;9.73;3.50;;;;;;;;;;5072915;28;20048;-64
2023/08/06 09:46:48;;;;;;;3.08;2.60;;;;;;;;;;5073255;28;20411;-63
2023/08/06 09:49:14;;;;;;;4.10;2.93;;;;;;;;;;5072855;28;20158;-63
2023/08/06 09:51:40;;;;;;;4.88;3.28;;;;;;;;;;5054969;28;20348;-64
2023/08/06 09:54:07;;;;;;;4.47;3.03;;;;;;;;;;5071667;28;20047;-63
2023/08/06 09:56:37;;;;;;;3.33;2.63;;;;;;;;;;5072669;28;20086;-63
2023/08/06 09:59:08;;;;;;;3.33;2.33;;;;;;;;;;5071644;28;20041;-64
2023/08/06 10:01:34;;;;;;;3.90;2.63;;;;;;;;;;5073071;28;20123;-63
2023/08/06 10:04:04;;;;;;;4.85;2.58;;;;;;;;;;5073089;28;20674;-63
2023/08/06 10:06:33;;;;;;;2.80;2.10;;;19.90;99.90;;;;;;5072683;28;20127;-63
2023/08/06 10:08:59;;;;;;;3.15;2.17;;;19.80;99.90;;;;;;5073064;28;20476;-60
2023/08/06 10:11:28;;;;;;;3.22;1.90;;;19.70;99.90;;;;;;5072979;28;20041;-60
2023/08/06 10:13:58;;;;;;;2.58;2.00;;;19.90;99.90;;;;;;5088225;28;20037;-61
2023/08/06 10:16:24;;;;;;;3.63;2.08;;;20.00;99.90;;;;;;5072934;28;20495;-61
2023/08/06 10:18:51;;;;;;;2.47;1.80;;;20.40;99.90;;;;;;5073078;28;20432;-61
2023/08/06 10:21:17;;;;;;;4.15;2.10;;;20.40;99.90;;;;;;5072913;28;20093;-61
2023/08/06 10:23:42;;;;;;;3.17;1.73;;;20.70;99.30;;;;;;5072763;28;20040;-61
2023/08/06 10:26:08;;;;;;;4.78;1.73;;;20.90;99.90;;;;;;5072537;28;20515;-61
2023/08/06 10:28:37;;;;;;;4.55;1.70;;;21.20;98.90;;;;;;5072467;28;20044;-61
2023/08/06 10:31:04;;;;;;;4.28;1.90;;;21.60;96.30;;;;;;5071482;28;20475;-61
2023/08/06 10:33:43;;;;;;;2.95;1.90;;;21.00;94.10;;;;;;5072770;28;20037;-61
2023/08/06 10:36:09;;;;;;;2.63;1.70;;;21.00;93.00;;;;;;5072739;28;20495;-61
2023/08/06 10:38:43;;;;;;;3.40;2.10;;;20.90;96.40;;;;;;5072438;28;20043;-61
2023/08/06 10:41:28;;;;;;;2.50;1.60;;;20.90;96.30;;;;;;5073907;28;20044;-63
2023/08/06 10:44:10;;;;;;;2.55;1.48;;;20.70;94.90;;;;;;5076569;28;20047;-60
2023/08/06 10:46:36;;;;;;;3.00;2.03;;;20.50;91.80;;;;;;5076452;28;20396;-61
2023/08/06 10:49:03;;;;;;;2.80;1.80;;;20.50;96.00;;;;;;5076165;28;20040;-61
2023/08/06 10:51:29;;;;;;;3.92;1.65;;;20.50;95.20;;;;;;5074788;28;20111;-61
2023/08/06 10:53:55;;;;;;;2.40;1.60;;;21.00;90.60;;;;;;5074782;28;20555;-61
2023/08/06 10:56:23;;;;;;;1.73;1.30;;;20.50;89.20;;;;;;5075965;28;20090;-60
2023/08/06 10:58:51;;;;;;;3.10;1.40;;;20.10;1.00;;;;;;5075840;28;20060;-61
2023/08/06 11:01:17;;;;;;;2.95;1.73;;;19.90;99.90;;;;;;5075922;28;20037;-61
2023/08/06 11:03:45;;;;;;;2.08;1.45;;;19.90;1.00;;;;;;5076081;28;20396;-61
2023/08/06 11:06:16;;;;;;;2.17;1.45;;;19.90;99.90;;;;;;5075782;28;20033;-61
2023/08/06 11:08:48;;;;;;;2.78;1.50;;;19.90;99.90;;;;;;5075630;28;20044;-60
2023/08/06 11:11:15;;;;;;;4.22;1.60;;;19.90;99.90;;;;;;5057628;28;20040;-60
2023/08/06 11:13:43;;;;;;;1.83;1.42;;;19.90;99.90;;;;;;5074302;28;20075;-61
2023/08/06 11:16:10;;;;;;;3.03;1.50;;;20.20;99.90;;;;;;5075835;28;20041;-60
2023/08/06 11:18:35;;;;;;;2.42;1.75;;;20.00;99.90;;;;;;5075728;28;20066;-63
2023/08/06 11:21:02;;;;;;;2.22;1.35;;;20.40;99.90;;;;;;5075615;28;20480;-60
2023/08/06 11:23:29;;;;;;;2.40;1.30;;;20.30;99.90;;;;;;5075623;28;20376;-61
2023/08/06 11:25:58;;;;;;;2.45;1.75;;;20.30;99.90;;;;;;5075520;28;20036;-60
2023/08/06 11:28:24;;;;;;;2.85;1.70;;;20.50;99.90;;;;;;5075334;28;20127;-61
2023/08/06 11:30:50;;;;;;;2.50;1.80;;;20.40;99.90;;;;;;5075321;28;20036;-60
2023/08/06 11:33:23;;;;;;;3.15;1.63;;;20.50;99.90;;;;;;5075628;28;20392;-61
2023/08/06 11:35:49;;;;;;;1.98;1.63;;;20.40;99.90;;;;;;5075324;28;20045;-60
2023/08/06 11:38:16;;;;;;;3.08;1.88;;;20.50;99.90;;;;;;5075273;28;20074;-61
2023/08/06 11:40:47;;;;;;;2.85;1.80;;;20.50;99.90;;;;;;5075375;28;20036;-61
2023/08/06 11:43:13;;;;;;;3.90;2.00;;;20.50;99.90;;;;;;5075109;28;20044;-61
2023/08/06 11:45:38;;;;;;;2.08;1.60;;;20.40;99.90;;;;;;5074078;28;20045;-61
2023/08/06 11:48:05;;;;;;;3.00;1.85;;;20.30;99.90;;;;;;5075309;28;20109;-61
2023/08/06 11:50:30;;;;;;;2.58;1.52;;;20.20;99.90;;;;;;5074899;28;20545;-61
2023/08/06 11:52:58;;;;;;;4.28;1.80;;;20.40;99.90;;;;;;5075227;28;20032;-61
2023/08/06 11:55:25;;;;;;;3.10;1.38;;;20.50;1.00;;;;;;5074886;28;20044;-61
2023/08/06 11:57:51;;;;;;;1.90;1.23;;;20.70;99.90;;;;;;5074922;28;20052;-63
2023/08/06 12:00:18;;;;;;;2.83;1.83;;;20.60;99.90;;;;;;5073994;28;20041;-66
2023/08/06 12:02:46;;;;;;;2.75;1.98;;;20.60;99.90;;;;;;5075071;28;20400;-66
2023/08/06 12:05:15;;;;;;;2.78;1.60;;;20.60;99.90;;;;;;5074948;28;20047;-66
2023/08/06 12:07:45;;;;;;;1.98;1.48;;;20.50;99.90;;;;;;5074903;28;20052;-66
2023/08/06 12:10:13;;;;;;;2.28;1.25;;;20.20;99.90;;;;;;5074995;28;20144;-64
2023/08/06 12:12:38;;;;;;;2.30;1.45;;;20.40;1.00;;;;;;5074545;28;20087;-64
2023/08/06 12:15:08;;;;;;;2.78;1.63;;;20.30;99.90;;;;;;5074836;28;20072;-63
2023/08/06 12:17:35;;;;;;;2.28;1.55;;;20.20;99.90;;;;;;5074736;28;20032;-63
2023/08/06 12:20:01;;;;;;;3.10;1.88;;;20.10;1.00;;;;;;5074413;28;20037;-63
2023/08/06 12:22:27;;;;;;;2.28;1.55;;;20.20;1.00;;;;;;5074716;28;20384;-63
2023/08/06 12:24:52;;;;;;;2.35;1.50;;;20.00;99.90;;;;;;5074653;28;20046;-63
2023/08/06 12:27:18;;;;;;;2.88;1.58;;;19.90;99.90;;;;;;5074520;28;20040;-64
2023/08/06 12:29:45;;;;;;;2.30;1.60;;;20.00;2.40;;;;;;5073284;28;20423;-64
2023/08/06 12:32:12;;;;;;;2.33;1.60;;;20.10;99.90;;;;;;5074429;28;20093;-64
2023/08/06 12:34:41;;;;;;;3.47;1.52;;;20.30;1.00;;;;;;5074444;28;20104;-64
2023/08/06 12:37:08;;;;;;;2.30;1.40;;;20.20;99.90;;;;;;5072858;28;20082;-64
2023/08/06 12:39:35;;;;;;;2.15;1.40;;;20.40;55.40;;;;;;5074362;28;20761;-61
2023/08/06 12:42:02;;;;;;;2.20;1.42;;;20.60;99.90;;;;;;5074025;28;20048;-61
2023/08/06 12:44:28;;;;;;;2.63;1.48;;;20.70;1.00;;;;;;5072664;28;20049;-61
2023/08/06 12:46:54;;;;;;;5.85;1.70;;;20.70;1.00;;;;;;5073837;28;20044;-61
2023/08/06 12:49:23;;;;;;;3.25;1.70;;;20.70;99.90;;;;;;5074088;28;20051;-62
2023/08/06 12:51:50;;;;;;;3.90;1.70;;;20.60;99.90;;;;;;5074129;28;20035;-61
2023/08/06 12:54:19;;;;;;;2.40;1.38;;;20.50;57.20;;;;;;5073751;28;20037;-61
2023/08/06 12:56:46;;;;;;;2.70;1.58;;;20.50;99.90;;;;;;5073469;28;20045;-61